sensor_id;sensor_type;location;lat;lon;timestamp;P1;durP1;ratioP1;P2;durP2;ratioP2
21837;SDS011;11081;45.946;6.140;2023-02-28T00:00:42;13.93;;;9.10;;
21837;SDS011;11081;45.946;6.140;2023-02-28T00:03:10;10.77;;;8.50;;
21837;SDS011;11081;45.946;6.140;2023-02-28T00:05:39;12.87;;;8.30;;
21837;SDS011;11081;45.946;6.140;2023-02-28T00:08:08;11.50;;;8.33;;
21837;SDS011;11081;45.946;6.140;2023-02-28T00:10:36;12.80;;;8.37;;
21837;SDS011;11081;45.946;6.140;2023-02-28T00:13:06;11.53;;;8.90;;
21837;SDS011;11081;45.946;6.140;2023-02-28T00:15:34;13.13;;;9.27;;
21837;SDS011;11081;45.946;6.140;2023-02-28T00:18:02;12.23;;;9.10;;
21837;SDS011;11081;45.946;6.140;2023-02-28T00:20:30;14.50;;;9.63;;
21837;SDS011;11081;45.946;6.140;2023-02-28T00:23:00;10.57;;;8.30;;
21837;SDS011;11081;45.946;6.140;2023-02-28T00:25:28;12.00;;;9.23;;
21837;SDS011;11081;45.946;6.140;2023-02-28T00:27:56;12.80;;;9.47;;
21837;SDS011;11081;45.946;6.140;2023-02-28T00:30:24;12.67;;;9.03;;
21837;SDS011;11081;45.946;6.140;2023-02-28T00:32:52;12.00;;;9.07;;
21837;SDS011;11081;45.946;6.140;2023-02-28T00:35:20;17.00;;;9.27;;
21837;SDS011;11081;45.946;6.140;2023-02-28T00:37:48;10.70;;;8.43;;
21837;SDS011;11081;45.946;6.140;2023-02-28T00:40:18;10.40;;;9.10;;
21837;SDS011;11081;45.946;6.140;2023-02-28T00:42:46;12.53;;;9.30;;
21837;SDS011;11081;45.946;6.140;2023-02-28T00:45:14;12.23;;;9.03;;
21837;SDS011;11081;45.946;6.140;2023-02-28T00:47:43;12.27;;;8.67;;
21837;SDS011;11081;45.946;6.140;2023-02-28T00:50:13;11.83;;;8.70;;
21837;SDS011;11081;45.946;6.140;2023-02-28T00:52:41;10.97;;;8.80;;
21837;SDS011;11081;45.946;6.140;2023-02-28T00:55:09;10.90;;;8.30;;
21837;SDS011;11081;45.946;6.140;2023-02-28T00:57:38;15.43;;;8.83;;
21837;SDS011;11081;45.946;6.140;2023-02-28T01:00:07;10.77;;;8.37;;
21837;SDS011;11081;45.946;6.140;2023-02-28T01:02:36;11.83;;;8.37;;
21837;SDS011;11081;45.946;6.140;2023-02-28T01:05:04;9.83;;;8.53;;
21837;SDS011;11081;45.946;6.140;2023-02-28T01:07:33;10.53;;;8.40;;
21837;SDS011;11081;45.946;6.140;2023-02-28T01:10:01;10.50;;;8.30;;
21837;SDS011;11081;45.946;6.140;2023-02-28T01:12:29;10.93;;;8.23;;
21837;SDS011;11081;45.946;6.140;2023-02-28T01:14:58;14.23;;;8.90;;
21837;SDS011;11081;45.946;6.140;2023-02-28T01:17:26;11.77;;;8.40;;
21837;SDS011;11081;45.946;6.140;2023-02-28T01:19:54;11.87;;;8.33;;
21837;SDS011;11081;45.946;6.140;2023-02-28T01:22:24;11.30;;;8.93;;
21837;SDS011;11081;45.946;6.140;2023-02-28T01:24:52;10.53;;;7.87;;
21837;SDS011;11081;45.946;6.140;2023-02-28T01:27:20;10.93;;;8.00;;
21837;SDS011;11081;45.946;6.140;2023-02-28T01:29:48;14.17;;;8.27;;
21837;SDS011;11081;45.946;6.140;2023-02-28T01:32:19;10.33;;;8.17;;
21837;SDS011;11081;45.946;6.140;2023-02-28T01:34:49;9.90;;;7.73;;
21837;SDS011;11081;45.946;6.140;2023-02-28T01:37:17;12.03;;;8.67;;
21837;SDS011;11081;45.946;6.140;2023-02-28T01:39:45;10.60;;;8.93;;
21837;SDS011;11081;45.946;6.140;2023-02-28T01:42:13;14.00;;;8.83;;
21837;SDS011;11081;45.946;6.140;2023-02-28T01:44:55;10.90;;;8.50;;
21837;SDS011;11081;45.946;6.140;2023-02-28T01:47:28;12.13;;;8.73;;
21837;SDS011;11081;45.946;6.140;2023-02-28T01:49:58;11.50;;;8.57;;
21837;SDS011;11081;45.946;6.140;2023-02-28T01:52:29;10.43;;;8.43;;
21837;SDS011;11081;45.946;6.140;2023-02-28T01:54:58;12.60;;;8.87;;
21837;SDS011;11081;45.946;6.140;2023-02-28T01:57:30;10.40;;;8.30;;
21837;SDS011;11081;45.946;6.140;2023-02-28T02:00:05;11.47;;;8.30;;
21837;SDS011;11081;45.946;6.140;2023-02-28T02:02:40;11.07;;;8.20;;
21837;SDS011;11081;45.946;6.140;2023-02-28T02:05:11;11.17;;;8.40;;
21837;SDS011;11081;45.946;6.140;2023-02-28T02:07:42;11.30;;;8.73;;
21837;SDS011;11081;45.946;6.140;2023-02-28T02:10:14;10.30;;;8.07;;
21837;SDS011;11081;45.946;6.140;2023-02-28T02:12:53;10.90;;;8.23;;
21837;SDS011;11081;45.946;6.140;2023-02-28T02:15:40;12.63;;;8.10;;
21837;SDS011;11081;45.946;6.140;2023-02-28T02:18:20;12.27;;;8.80;;
21837;SDS011;11081;45.946;6.140;2023-02-28T02:21:06;12.83;;;7.93;;
21837;SDS011;11081;45.946;6.140;2023-02-28T02:24:06;10.87;;;7.97;;
21837;SDS011;11081;45.946;6.140;2023-02-28T02:27:05;11.57;;;8.30;;
21837;SDS011;11081;45.946;6.140;2023-02-28T02:29:54;12.40;;;8.67;;
21837;SDS011;11081;45.946;6.140;2023-02-28T02:33:03;10.60;;;8.63;;
21837;SDS011;11081;45.946;6.140;2023-02-28T02:35:40;12.63;;;8.97;;
21837;SDS011;11081;45.946;6.140;2023-02-28T02:38:11;13.10;;;8.50;;
21837;SDS011;11081;45.946;6.140;2023-02-28T02:40:47;12.33;;;9.37;;
21837;SDS011;11081;45.946;6.140;2023-02-28T02:43:25;12.97;;;9.47;;
21837;SDS011;11081;45.946;6.140;2023-02-28T02:45:59;10.83;;;8.73;;
21837;SDS011;11081;45.946;6.140;2023-02-28T02:48:33;11.73;;;9.00;;
21837;SDS011;11081;45.946;6.140;2023-02-28T02:51:08;12.27;;;9.30;;
21837;SDS011;11081;45.946;6.140;2023-02-28T02:53:41;12.80;;;8.90;;
21837;SDS011;11081;45.946;6.140;2023-02-28T02:56:15;11.43;;;8.87;;
21837;SDS011;11081;45.946;6.140;2023-02-28T02:58:47;13.20;;;8.93;;
21837;SDS011;11081;45.946;6.140;2023-02-28T03:01:18;11.77;;;8.20;;
21837;SDS011;11081;45.946;6.140;2023-02-28T03:03:55;11.30;;;8.87;;
21837;SDS011;11081;45.946;6.140;2023-02-28T03:06:27;9.97;;;8.17;;
21837;SDS011;11081;45.946;6.140;2023-02-28T03:08:55;12.10;;;8.93;;
21837;SDS011;11081;45.946;6.140;2023-02-28T03:11:23;9.73;;;8.03;;
21837;SDS011;11081;45.946;6.140;2023-02-28T03:16:49;10.63;;;8.57;;
21837;SDS011;11081;45.946;6.140;2023-02-28T03:19:33;10.60;;;8.03;;
21837;SDS011;11081;45.946;6.140;2023-02-28T03:22:22;10.77;;;8.67;;
21837;SDS011;11081;45.946;6.140;2023-02-28T03:25:02;12.57;;;8.93;;
21837;SDS011;11081;45.946;6.140;2023-02-28T03:27:37;11.67;;;8.67;;
21837;SDS011;11081;45.946;6.140;2023-02-28T03:30:10;13.63;;;8.97;;
21837;SDS011;11081;45.946;6.140;2023-02-28T03:32:49;12.97;;;8.97;;
21837;SDS011;11081;45.946;6.140;2023-02-28T03:35:23;12.40;;;9.10;;
21837;SDS011;11081;45.946;6.140;2023-02-28T03:37:56;12.97;;;9.27;;
21837;SDS011;11081;45.946;6.140;2023-02-28T03:40:30;12.60;;;9.53;;
21837;SDS011;11081;45.946;6.140;2023-02-28T03:43:02;13.60;;;9.33;;
21837;SDS011;11081;45.946;6.140;2023-02-28T03:45:35;13.07;;;9.67;;
21837;SDS011;11081;45.946;6.140;2023-02-28T03:48:06;13.50;;;9.63;;
21837;SDS011;11081;45.946;6.140;2023-02-28T03:50:40;11.67;;;8.63;;
21837;SDS011;11081;45.946;6.140;2023-02-28T03:53:12;11.57;;;8.67;;
21837;SDS011;11081;45.946;6.140;2023-02-28T03:55:45;13.87;;;9.13;;
21837;SDS011;11081;45.946;6.140;2023-02-28T03:58:17;11.77;;;9.07;;
21837;SDS011;11081;45.946;6.140;2023-02-28T04:00:52;12.80;;;9.77;;
21837;SDS011;11081;45.946;6.140;2023-02-28T04:03:26;11.60;;;8.50;;
21837;SDS011;11081;45.946;6.140;2023-02-28T04:05:54;12.30;;;8.87;;
21837;SDS011;11081;45.946;6.140;2023-02-28T04:08:26;12.00;;;8.97;;
21837;SDS011;11081;45.946;6.140;2023-02-28T04:10:55;14.47;;;9.20;;
21837;SDS011;11081;45.946;6.140;2023-02-28T04:13:28;12.40;;;9.37;;
21837;SDS011;11081;45.946;6.140;2023-02-28T04:15:56;10.83;;;8.93;;
21837;SDS011;11081;45.946;6.140;2023-02-28T04:18:24;13.93;;;9.57;;
21837;SDS011;11081;45.946;6.140;2023-02-28T04:20:52;13.20;;;9.83;;
21837;SDS011;11081;45.946;6.140;2023-02-28T04:23:20;12.37;;;9.60;;
21837;SDS011;11081;45.946;6.140;2023-02-28T04:25:49;12.30;;;9.27;;
21837;SDS011;11081;45.946;6.140;2023-02-28T04:28:18;14.90;;;9.83;;
21837;SDS011;11081;45.946;6.140;2023-02-28T04:30:46;11.73;;;9.03;;
21837;SDS011;11081;45.946;6.140;2023-02-28T04:33:14;13.17;;;9.73;;
21837;SDS011;11081;45.946;6.140;2023-02-28T04:35:42;11.93;;;9.57;;
21837;SDS011;11081;45.946;6.140;2023-02-28T04:38:10;12.37;;;9.33;;
21837;SDS011;11081;45.946;6.140;2023-02-28T04:40:38;15.80;;;10.07;;
21837;SDS011;11081;45.946;6.140;2023-02-28T04:43:07;13.37;;;9.70;;
21837;SDS011;11081;45.946;6.140;2023-02-28T04:45:35;11.70;;;9.63;;
21837;SDS011;11081;45.946;6.140;2023-02-28T04:48:03;11.33;;;9.40;;
21837;SDS011;11081;45.946;6.140;2023-02-28T04:50:31;13.40;;;10.10;;
21837;SDS011;11081;45.946;6.140;2023-02-28T04:52:59;13.87;;;10.27;;
21837;SDS011;11081;45.946;6.140;2023-02-28T04:55:27;13.80;;;9.80;;
21837;SDS011;11081;45.946;6.140;2023-02-28T04:57:55;14.57;;;10.63;;
21837;SDS011;11081;45.946;6.140;2023-02-28T05:00:25;13.10;;;10.33;;
21837;SDS011;11081;45.946;6.140;2023-02-28T05:02:53;13.37;;;9.93;;
21837;SDS011;11081;45.946;6.140;2023-02-28T05:05:21;12.97;;;10.17;;
21837;SDS011;11081;45.946;6.140;2023-02-28T05:07:49;12.10;;;9.83;;
21837;SDS011;11081;45.946;6.140;2023-02-28T05:10:17;12.43;;;9.73;;
21837;SDS011;11081;45.946;6.140;2023-02-28T05:12:45;16.07;;;10.47;;
21837;SDS011;11081;45.946;6.140;2023-02-28T05:15:14;13.33;;;10.07;;
21837;SDS011;11081;45.946;6.140;2023-02-28T05:17:45;14.03;;;10.63;;
21837;SDS011;11081;45.946;6.140;2023-02-28T05:20:13;14.63;;;9.77;;
21837;SDS011;11081;45.946;6.140;2023-02-28T05:22:42;14.13;;;10.80;;
21837;SDS011;11081;45.946;6.140;2023-02-28T05:25:10;14.13;;;10.07;;
21837;SDS011;11081;45.946;6.140;2023-02-28T05:27:41;13.47;;;10.20;;
21837;SDS011;11081;45.946;6.140;2023-02-28T05:30:10;13.33;;;10.57;;
21837;SDS011;11081;45.946;6.140;2023-02-28T05:32:39;13.27;;;9.83;;
21837;SDS011;11081;45.946;6.140;2023-02-28T05:35:10;15.43;;;11.07;;
21837;SDS011;11081;45.946;6.140;2023-02-28T05:37:39;15.27;;;10.60;;
21837;SDS011;11081;45.946;6.140;2023-02-28T05:40:07;15.70;;;10.50;;
21837;SDS011;11081;45.946;6.140;2023-02-28T05:42:37;13.93;;;9.93;;
21837;SDS011;11081;45.946;6.140;2023-02-28T05:45:06;13.43;;;9.90;;
21837;SDS011;11081;45.946;6.140;2023-02-28T05:47:35;14.13;;;10.47;;
21837;SDS011;11081;45.946;6.140;2023-02-28T05:50:03;13.10;;;10.40;;
21837;SDS011;11081;45.946;6.140;2023-02-28T05:52:34;15.13;;;10.90;;
21837;SDS011;11081;45.946;6.140;2023-02-28T05:55:02;15.37;;;11.17;;
21837;SDS011;11081;45.946;6.140;2023-02-28T05:57:30;14.13;;;10.83;;
21837;SDS011;11081;45.946;6.140;2023-02-28T05:59:58;14.83;;;10.27;;
21837;SDS011;11081;45.946;6.140;2023-02-28T06:02:26;16.23;;;11.13;;
21837;SDS011;11081;45.946;6.140;2023-02-28T06:04:54;14.83;;;10.83;;
21837;SDS011;11081;45.946;6.140;2023-02-28T06:07:22;14.83;;;11.17;;
21837;SDS011;11081;45.946;6.140;2023-02-28T06:09:52;15.37;;;10.17;;
21837;SDS011;11081;45.946;6.140;2023-02-28T06:12:20;17.63;;;12.00;;
21837;SDS011;11081;45.946;6.140;2023-02-28T06:14:48;15.50;;;10.63;;
21837;SDS011;11081;45.946;6.140;2023-02-28T06:17:16;16.63;;;11.50;;
21837;SDS011;11081;45.946;6.140;2023-02-28T06:19:44;16.10;;;11.30;;
21837;SDS011;11081;45.946;6.140;2023-02-28T06:22:12;18.70;;;11.27;;
21837;SDS011;11081;45.946;6.140;2023-02-28T06:24:40;16.20;;;11.37;;
21837;SDS011;11081;45.946;6.140;2023-02-28T06:27:09;14.53;;;10.97;;
21837;SDS011;11081;45.946;6.140;2023-02-28T06:29:37;14.67;;;11.20;;
21837;SDS011;11081;45.946;6.140;2023-02-28T06:32:06;14.20;;;11.10;;
21837;SDS011;11081;45.946;6.140;2023-02-28T06:34:34;17.07;;;11.73;;
21837;SDS011;11081;45.946;6.140;2023-02-28T06:37:03;17.73;;;11.83;;
21837;SDS011;11081;45.946;6.140;2023-02-28T06:39:31;15.97;;;11.17;;
21837;SDS011;11081;45.946;6.140;2023-02-28T06:41:59;17.67;;;11.10;;
21837;SDS011;11081;45.946;6.140;2023-02-28T06:44:28;14.77;;;12.00;;
21837;SDS011;11081;45.946;6.140;2023-02-28T06:47:01;16.37;;;11.80;;
21837;SDS011;11081;45.946;6.140;2023-02-28T06:49:30;16.67;;;11.60;;
21837;SDS011;11081;45.946;6.140;2023-02-28T06:51:59;18.03;;;11.40;;
21837;SDS011;11081;45.946;6.140;2023-02-28T06:54:27;18.20;;;12.80;;
21837;SDS011;11081;45.946;6.140;2023-02-28T06:56:56;16.63;;;11.93;;
21837;SDS011;11081;45.946;6.140;2023-02-28T06:59:25;15.33;;;11.80;;
21837;SDS011;11081;45.946;6.140;2023-02-28T07:01:54;17.90;;;12.40;;
21837;SDS011;11081;45.946;6.140;2023-02-28T07:04:22;16.90;;;12.27;;
21837;SDS011;11081;45.946;6.140;2023-02-28T07:06:50;15.00;;;11.73;;
21837;SDS011;11081;45.946;6.140;2023-02-28T07:09:18;19.90;;;12.17;;
21837;SDS011;11081;45.946;6.140;2023-02-28T07:11:46;16.80;;;12.27;;
21837;SDS011;11081;45.946;6.140;2023-02-28T07:14:15;18.37;;;12.93;;
21837;SDS011;11081;45.946;6.140;2023-02-28T07:16:43;18.77;;;12.30;;
21837;SDS011;11081;45.946;6.140;2023-02-28T07:19:13;16.90;;;11.97;;
21837;SDS011;11081;45.946;6.140;2023-02-28T07:21:41;17.83;;;12.30;;
21837;SDS011;11081;45.946;6.140;2023-02-28T07:24:09;18.20;;;12.90;;
21837;SDS011;11081;45.946;6.140;2023-02-28T07:26:37;17.20;;;12.60;;
21837;SDS011;11081;45.946;6.140;2023-02-28T07:29:05;17.27;;;12.27;;
21837;SDS011;11081;45.946;6.140;2023-02-28T07:31:33;18.17;;;12.37;;
21837;SDS011;11081;45.946;6.140;2023-02-28T07:34:01;17.63;;;12.03;;
21837;SDS011;11081;45.946;6.140;2023-02-28T07:36:31;15.87;;;12.60;;
21837;SDS011;11081;45.946;6.140;2023-02-28T07:38:59;18.97;;;12.20;;
21837;SDS011;11081;45.946;6.140;2023-02-28T07:41:27;17.93;;;11.87;;
21837;SDS011;11081;45.946;6.140;2023-02-28T07:43:56;17.40;;;12.80;;
21837;SDS011;11081;45.946;6.140;2023-02-28T07:46:26;18.23;;;12.60;;
21837;SDS011;11081;45.946;6.140;2023-02-28T07:48:56;17.47;;;11.93;;
21837;SDS011;11081;45.946;6.140;2023-02-28T07:51:25;18.83;;;12.13;;
21837;SDS011;11081;45.946;6.140;2023-02-28T07:53:55;17.83;;;12.57;;
21837;SDS011;11081;45.946;6.140;2023-02-28T07:56:24;16.77;;;12.77;;
21837;SDS011;11081;45.946;6.140;2023-02-28T07:58:52;18.63;;;12.90;;
21837;SDS011;11081;45.946;6.140;2023-02-28T08:01:20;19.00;;;12.83;;
21837;SDS011;11081;45.946;6.140;2023-02-28T08:03:48;17.37;;;13.07;;
21837;SDS011;11081;45.946;6.140;2023-02-28T08:06:17;17.93;;;12.70;;
21837;SDS011;11081;45.946;6.140;2023-02-28T08:08:46;20.40;;;13.70;;
21837;SDS011;11081;45.946;6.140;2023-02-28T08:11:16;16.73;;;12.40;;
21837;SDS011;11081;45.946;6.140;2023-02-28T08:13:44;17.23;;;12.57;;
21837;SDS011;11081;45.946;6.140;2023-02-28T08:16:13;19.43;;;12.77;;
21837;SDS011;11081;45.946;6.140;2023-02-28T08:18:44;17.60;;;12.60;;
21837;SDS011;11081;45.946;6.140;2023-02-28T08:21:12;18.30;;;13.20;;
21837;SDS011;11081;45.946;6.140;2023-02-28T08:23:40;17.87;;;12.60;;
21837;SDS011;11081;45.946;6.140;2023-02-28T08:26:08;18.47;;;12.20;;
21837;SDS011;11081;45.946;6.140;2023-02-28T08:28:38;16.00;;;11.80;;
21837;SDS011;11081;45.946;6.140;2023-02-28T08:31:07;18.70;;;12.13;;
21837;SDS011;11081;45.946;6.140;2023-02-28T08:33:36;20.47;;;12.43;;
21837;SDS011;11081;45.946;6.140;2023-02-28T08:36:06;16.77;;;12.50;;
21837;SDS011;11081;45.946;6.140;2023-02-28T08:38:35;18.20;;;12.87;;
21837;SDS011;11081;45.946;6.140;2023-02-28T08:41:04;19.83;;;12.77;;
21837;SDS011;11081;45.946;6.140;2023-02-28T08:43:34;21.70;;;12.60;;
21837;SDS011;11081;45.946;6.140;2023-02-28T08:46:04;16.13;;;11.77;;
21837;SDS011;11081;45.946;6.140;2023-02-28T08:48:34;17.30;;;11.83;;
21837;SDS011;11081;45.946;6.140;2023-02-28T08:51:05;19.43;;;12.57;;
21837;SDS011;11081;45.946;6.140;2023-02-28T08:53:36;18.50;;;11.97;;
21837;SDS011;11081;45.946;6.140;2023-02-28T08:56:05;16.80;;;11.90;;
21837;SDS011;11081;45.946;6.140;2023-02-28T08:58:35;16.47;;;12.20;;
21837;SDS011;11081;45.946;6.140;2023-02-28T09:01:09;16.77;;;11.70;;
21837;SDS011;11081;45.946;6.140;2023-02-28T09:03:38;16.13;;;12.07;;
21837;SDS011;11081;45.946;6.140;2023-02-28T09:06:08;16.47;;;11.90;;
21837;SDS011;11081;45.946;6.140;2023-02-28T09:08:38;18.20;;;12.23;;
21837;SDS011;11081;45.946;6.140;2023-02-28T09:11:06;20.30;;;12.53;;
21837;SDS011;11081;45.946;6.140;2023-02-28T09:13:35;15.90;;;11.33;;
21837;SDS011;11081;45.946;6.140;2023-02-28T09:16:04;20.47;;;12.03;;
21837;SDS011;11081;45.946;6.140;2023-02-28T09:18:35;17.90;;;11.83;;
21837;SDS011;11081;45.946;6.140;2023-02-28T09:21:04;19.87;;;12.73;;
21837;SDS011;11081;45.946;6.140;2023-02-28T09:23:33;17.73;;;12.33;;
21837;SDS011;11081;45.946;6.140;2023-02-28T09:26:04;16.73;;;12.67;;
21837;SDS011;11081;45.946;6.140;2023-02-28T09:28:32;16.03;;;11.80;;
21837;SDS011;11081;45.946;6.140;2023-02-28T09:31:01;15.27;;;11.57;;
21837;SDS011;11081;45.946;6.140;2023-02-28T09:33:31;18.73;;;13.43;;
21837;SDS011;11081;45.946;6.140;2023-02-28T09:36:02;15.23;;;11.40;;
21837;SDS011;11081;45.946;6.140;2023-02-28T09:38:30;18.53;;;11.33;;
21837;SDS011;11081;45.946;6.140;2023-02-28T09:41:00;16.93;;;12.10;;
21837;SDS011;11081;45.946;6.140;2023-02-28T09:43:31;19.93;;;11.53;;
21837;SDS011;11081;45.946;6.140;2023-02-28T09:46:06;18.03;;;11.77;;
21837;SDS011;11081;45.946;6.140;2023-02-28T09:48:41;15.37;;;11.17;;
21837;SDS011;11081;45.946;6.140;2023-02-28T09:51:16;18.40;;;12.37;;
21837;SDS011;11081;45.946;6.140;2023-02-28T09:53:56;47.30;;;26.23;;
21837;SDS011;11081;45.946;6.140;2023-02-28T09:56:28;30.13;;;19.37;;
21837;SDS011;11081;45.946;6.140;2023-02-28T09:59:01;21.23;;;14.00;;
21837;SDS011;11081;45.946;6.140;2023-02-28T10:01:34;20.57;;;12.10;;
21837;SDS011;11081;45.946;6.140;2023-02-28T10:04:09;18.13;;;12.83;;
21837;SDS011;11081;45.946;6.140;2023-02-28T10:06:46;17.90;;;11.80;;
21837;SDS011;11081;45.946;6.140;2023-02-28T10:09:17;18.43;;;12.70;;
21837;SDS011;11081;45.946;6.140;2023-02-28T10:11:50;16.33;;;11.90;;
21837;SDS011;11081;45.946;6.140;2023-02-28T10:14:23;19.10;;;12.50;;
21837;SDS011;11081;45.946;6.140;2023-02-28T10:16:54;17.57;;;12.63;;
21837;SDS011;11081;45.946;6.140;2023-02-28T10:19:25;16.60;;;12.27;;
21837;SDS011;11081;45.946;6.140;2023-02-28T10:22:00;17.87;;;12.83;;
21837;SDS011;11081;45.946;6.140;2023-02-28T10:24:32;18.07;;;12.93;;
21837;SDS011;11081;45.946;6.140;2023-02-28T10:27:12;18.37;;;12.87;;
21837;SDS011;11081;45.946;6.140;2023-02-28T10:29:43;17.90;;;12.77;;
21837;SDS011;11081;45.946;6.140;2023-02-28T10:32:13;16.43;;;12.13;;
21837;SDS011;11081;45.946;6.140;2023-02-28T10:34:44;16.43;;;12.60;;
21837;SDS011;11081;45.946;6.140;2023-02-28T10:37:13;19.27;;;13.13;;
21837;SDS011;11081;45.946;6.140;2023-02-28T10:39:43;18.93;;;12.93;;
21837;SDS011;11081;45.946;6.140;2023-02-28T10:42:22;16.70;;;12.33;;
21837;SDS011;11081;45.946;6.140;2023-02-28T10:45:04;15.90;;;11.93;;
21837;SDS011;11081;45.946;6.140;2023-02-28T10:47:34;16.10;;;12.50;;
21837;SDS011;11081;45.946;6.140;2023-02-28T10:50:23;19.90;;;13.47;;
21837;SDS011;11081;45.946;6.140;2023-02-28T10:52:56;20.20;;;12.97;;
21837;SDS011;11081;45.946;6.140;2023-02-28T10:55:36;15.20;;;12.03;;
21837;SDS011;11081;45.946;6.140;2023-02-28T10:58:13;17.27;;;12.50;;
21837;SDS011;11081;45.946;6.140;2023-02-28T11:00:48;18.13;;;12.10;;
21837;SDS011;11081;45.946;6.140;2023-02-28T11:03:23;15.63;;;11.67;;
21837;SDS011;11081;45.946;6.140;2023-02-28T11:05:53;16.80;;;12.90;;
21837;SDS011;11081;45.946;6.140;2023-02-28T11:08:23;15.80;;;12.23;;
21837;SDS011;11081;45.946;6.140;2023-02-28T11:10:55;19.73;;;13.83;;
21837;SDS011;11081;45.946;6.140;2023-02-28T11:13:26;17.60;;;12.93;;
21837;SDS011;11081;45.946;6.140;2023-02-28T11:16:00;16.30;;;12.40;;
21837;SDS011;11081;45.946;6.140;2023-02-28T11:18:33;16.57;;;12.03;;
21837;SDS011;11081;45.946;6.140;2023-02-28T11:21:07;17.17;;;12.23;;
21837;SDS011;11081;45.946;6.140;2023-02-28T11:23:44;17.63;;;12.03;;
21837;SDS011;11081;45.946;6.140;2023-02-28T11:26:13;17.33;;;11.67;;
21837;SDS011;11081;45.946;6.140;2023-02-28T11:28:42;16.10;;;12.13;;
21837;SDS011;11081;45.946;6.140;2023-02-28T11:31:17;17.00;;;12.87;;
21837;SDS011;11081;45.946;6.140;2023-02-28T11:33:49;16.37;;;12.93;;
21837;SDS011;11081;45.946;6.140;2023-02-28T11:36:19;15.73;;;12.00;;
21837;SDS011;11081;45.946;6.140;2023-02-28T11:38:55;17.20;;;12.47;;
21837;SDS011;11081;45.946;6.140;2023-02-28T11:41:37;14.60;;;11.43;;
21837;SDS011;11081;45.946;6.140;2023-02-28T11:44:29;17.70;;;12.87;;
21837;SDS011;11081;45.946;6.140;2023-02-28T11:47:10;19.23;;;12.83;;
21837;SDS011;11081;45.946;6.140;2023-02-28T11:49:46;16.83;;;12.70;;
21837;SDS011;11081;45.946;6.140;2023-02-28T11:52:29;18.83;;;12.00;;
21837;SDS011;11081;45.946;6.140;2023-02-28T11:55:14;16.63;;;12.13;;
21837;SDS011;11081;45.946;6.140;2023-02-28T11:57:58;17.03;;;12.33;;
21837;SDS011;11081;45.946;6.140;2023-02-28T12:00:38;15.07;;;12.17;;
21837;SDS011;11081;45.946;6.140;2023-02-28T12:03:19;17.07;;;12.73;;
21837;SDS011;11081;45.946;6.140;2023-02-28T12:05:57;16.17;;;12.07;;
21837;SDS011;11081;45.946;6.140;2023-02-28T12:08:40;17.40;;;13.03;;
21837;SDS011;11081;45.946;6.140;2023-02-28T12:11:17;19.33;;;12.50;;
21837;SDS011;11081;45.946;6.140;2023-02-28T12:13:57;18.73;;;12.67;;
21837;SDS011;11081;45.946;6.140;2023-02-28T12:16:42;16.93;;;12.37;;
21837;SDS011;11081;45.946;6.140;2023-02-28T12:19:21;16.03;;;12.03;;
21837;SDS011;11081;45.946;6.140;2023-02-28T12:22:12;19.07;;;12.70;;
21837;SDS011;11081;45.946;6.140;2023-02-28T12:27:53;17.47;;;12.40;;
21837;SDS011;11081;45.946;6.140;2023-02-28T12:30:22;17.60;;;12.90;;
21837;SDS011;11081;45.946;6.140;2023-02-28T12:32:54;16.73;;;11.83;;
21837;SDS011;11081;45.946;6.140;2023-02-28T12:35:26;16.33;;;11.97;;
21837;SDS011;11081;45.946;6.140;2023-02-28T12:38:01;15.17;;;11.57;;
21837;SDS011;11081;45.946;6.140;2023-02-28T12:40:33;13.87;;;10.87;;
21837;SDS011;11081;45.946;6.140;2023-02-28T12:43:12;17.33;;;12.13;;
21837;SDS011;11081;45.946;6.140;2023-02-28T12:45:44;15.13;;;11.90;;
21837;SDS011;11081;45.946;6.140;2023-02-28T12:48:18;15.43;;;11.70;;
21837;SDS011;11081;45.946;6.140;2023-02-28T12:50:51;15.87;;;12.17;;
21837;SDS011;11081;45.946;6.140;2023-02-28T12:53:22;16.77;;;11.50;;
21837;SDS011;11081;45.946;6.140;2023-02-28T12:55:57;17.30;;;11.33;;
21837;SDS011;11081;45.946;6.140;2023-02-28T12:58:36;13.37;;;10.63;;
21837;SDS011;11081;45.946;6.140;2023-02-28T13:01:14;16.67;;;11.80;;
21837;SDS011;11081;45.946;6.140;2023-02-28T13:07:03;16.73;;;11.53;;
21837;SDS011;11081;45.946;6.140;2023-02-28T13:09:51;17.30;;;12.23;;
21837;SDS011;11081;45.946;6.140;2023-02-28T13:12:21;17.20;;;12.63;;
21837;SDS011;11081;45.946;6.140;2023-02-28T13:14:51;18.43;;;13.00;;
21837;SDS011;11081;45.946;6.140;2023-02-28T13:17:32;18.23;;;12.93;;
21837;SDS011;11081;45.946;6.140;2023-02-28T13:20:00;16.70;;;12.33;;
21837;SDS011;11081;45.946;6.140;2023-02-28T13:22:39;15.10;;;11.87;;
21837;SDS011;11081;45.946;6.140;2023-02-28T13:34:40;15.17;;;12.37;;
21837;SDS011;11081;45.946;6.140;2023-02-28T13:37:34;16.90;;;11.90;;
21837;SDS011;11081;45.946;6.140;2023-02-28T13:40:28;16.57;;;12.33;;
21837;SDS011;11081;45.946;6.140;2023-02-28T13:43:05;17.63;;;13.47;;
21837;SDS011;11081;45.946;6.140;2023-02-28T13:45:35;16.17;;;12.33;;
21837;SDS011;11081;45.946;6.140;2023-02-28T13:48:15;17.20;;;12.93;;
21837;SDS011;11081;45.946;6.140;2023-02-28T13:50:46;17.50;;;13.07;;
21837;SDS011;11081;45.946;6.140;2023-02-28T13:53:30;19.60;;;13.13;;
21837;SDS011;11081;45.946;6.140;2023-02-28T13:56:30;17.73;;;13.13;;
21837;SDS011;11081;45.946;6.140;2023-02-28T13:59:13;20.33;;;13.50;;
21837;SDS011;11081;45.946;6.140;2023-02-28T14:01:52;20.40;;;13.67;;
21837;SDS011;11081;45.946;6.140;2023-02-28T14:07:19;17.17;;;12.90;;
21837;SDS011;11081;45.946;6.140;2023-02-28T14:09:54;17.70;;;13.10;;
21837;SDS011;11081;45.946;6.140;2023-02-28T14:15:44;17.17;;;12.97;;
21837;SDS011;11081;45.946;6.140;2023-02-28T14:18:20;17.00;;;13.13;;
21837;SDS011;11081;45.946;6.140;2023-02-28T14:20:54;17.57;;;13.03;;
21837;SDS011;11081;45.946;6.140;2023-02-28T14:23:34;18.33;;;13.00;;
21837;SDS011;11081;45.946;6.140;2023-02-28T14:26:11;18.20;;;11.97;;
21837;SDS011;11081;45.946;6.140;2023-02-28T14:28:54;18.03;;;12.83;;
21837;SDS011;11081;45.946;6.140;2023-02-28T14:31:33;17.57;;;12.77;;
21837;SDS011;11081;45.946;6.140;2023-02-28T14:34:12;18.03;;;12.77;;
21837;SDS011;11081;45.946;6.140;2023-02-28T14:36:52;17.43;;;12.07;;
21837;SDS011;11081;45.946;6.140;2023-02-28T14:39:22;15.97;;;12.27;;
21837;SDS011;11081;45.946;6.140;2023-02-28T14:41:53;16.80;;;11.63;;
21837;SDS011;11081;45.946;6.140;2023-02-28T14:44:21;16.67;;;11.57;;
21837;SDS011;11081;45.946;6.140;2023-02-28T14:46:52;16.03;;;11.97;;
21837;SDS011;11081;45.946;6.140;2023-02-28T14:49:23;17.00;;;12.13;;
21837;SDS011;11081;45.946;6.140;2023-02-28T14:52:02;16.27;;;12.60;;
21837;SDS011;11081;45.946;6.140;2023-02-28T14:54:37;17.57;;;11.87;;
21837;SDS011;11081;45.946;6.140;2023-02-28T14:57:06;17.67;;;12.60;;
21837;SDS011;11081;45.946;6.140;2023-02-28T14:59:57;15.30;;;11.73;;
21837;SDS011;11081;45.946;6.140;2023-02-28T15:02:29;16.07;;;11.90;;
21837;SDS011;11081;45.946;6.140;2023-02-28T15:05:02;15.13;;;11.63;;
21837;SDS011;11081;45.946;6.140;2023-02-28T15:07:47;18.73;;;11.90;;
21837;SDS011;11081;45.946;6.140;2023-02-28T15:10:19;16.57;;;12.30;;
21837;SDS011;11081;45.946;6.140;2023-02-28T15:12:50;15.77;;;12.00;;
21837;SDS011;11081;45.946;6.140;2023-02-28T15:15:20;16.53;;;11.83;;
21837;SDS011;11081;45.946;6.140;2023-02-28T15:18:05;15.77;;;11.87;;
21837;SDS011;11081;45.946;6.140;2023-02-28T15:20:35;15.97;;;11.93;;